sensor_id;sensor_type;location;lat;lon;timestamp;P1;durP1;ratioP1;P2;durP2;ratioP2
76320;SDS011;65132;52.088;5.402;2023-03-24T00:01:58;8.05;;;1.77;;
76320;SDS011;65132;52.088;5.402;2023-03-24T00:04:31;7.63;;;2.22;;
76320;SDS011;65132;52.088;5.402;2023-03-24T00:07:01;6.38;;;1.27;;
76320;SDS011;65132;52.088;5.402;2023-03-24T00:09:28;6.70;;;2.05;;
76320;SDS011;65132;52.088;5.402;2023-03-24T00:11:56;5.25;;;2.05;;
76320;SDS011;65132;52.088;5.402;2023-03-24T00:14:23;5.50;;;1.35;;
76320;SDS011;65132;52.088;5.402;2023-03-24T00:16:50;5.15;;;1.80;;
76320;SDS011;65132;52.088;5.402;2023-03-24T00:19:17;5.43;;;2.33;;
76320;SDS011;65132;52.088;5.402;2023-03-24T00:21:43;4.80;;;1.75;;
76320;SDS011;65132;52.088;5.402;2023-03-24T00:24:11;5.03;;;1.77;;
76320;SDS011;65132;52.088;5.402;2023-03-24T00:26:40;4.07;;;1.48;;
76320;SDS011;65132;52.088;5.402;2023-03-24T00:29:09;6.53;;;2.35;;
76320;SDS011;65132;52.088;5.402;2023-03-24T00:31:38;4.32;;;1.40;;
76320;SDS011;65132;52.088;5.402;2023-03-24T00:34:05;4.18;;;1.38;;
76320;SDS011;65132;52.088;5.402;2023-03-24T00:36:34;4.35;;;1.52;;
76320;SDS011;65132;52.088;5.402;2023-03-24T00:39:01;7.72;;;2.40;;
76320;SDS011;65132;52.088;5.402;2023-03-24T00:41:31;7.78;;;2.05;;
76320;SDS011;65132;52.088;5.402;2023-03-24T00:44:00;4.88;;;1.75;;
76320;SDS011;65132;52.088;5.402;2023-03-24T00:46:27;5.20;;;2.10;;
76320;SDS011;65132;52.088;5.402;2023-03-24T00:49:00;4.00;;;1.05;;
76320;SDS011;65132;52.088;5.402;2023-03-24T00:51:35;4.30;;;2.28;;
76320;SDS011;65132;52.088;5.402;2023-03-24T00:54:04;5.13;;;2.10;;
76320;SDS011;65132;52.088;5.402;2023-03-24T00:56:35;5.95;;;2.40;;
76320;SDS011;65132;52.088;5.402;2023-03-24T00:59:05;3.58;;;1.70;;
76320;SDS011;65132;52.088;5.402;2023-03-24T01:01:32;3.85;;;1.83;;
76320;SDS011;65132;52.088;5.402;2023-03-24T01:04:06;4.60;;;1.88;;
76320;SDS011;65132;52.088;5.402;2023-03-24T01:06:37;3.45;;;1.52;;
76320;SDS011;65132;52.088;5.402;2023-03-24T01:09:04;5.35;;;1.55;;
76320;SDS011;65132;52.088;5.402;2023-03-24T01:11:39;6.38;;;2.47;;
76320;SDS011;65132;52.088;5.402;2023-03-24T01:14:12;6.20;;;2.42;;
76320;SDS011;65132;52.088;5.402;2023-03-24T01:16:42;5.20;;;1.55;;
76320;SDS011;65132;52.088;5.402;2023-03-24T01:19:11;4.57;;;2.30;;
76320;SDS011;65132;52.088;5.402;2023-03-24T01:21:39;6.72;;;2.10;;
76320;SDS011;65132;52.088;5.402;2023-03-24T01:24:08;4.53;;;1.60;;
76320;SDS011;65132;52.088;5.402;2023-03-24T01:26:37;7.25;;;2.00;;
76320;SDS011;65132;52.088;5.402;2023-03-24T01:29:06;4.50;;;2.10;;
76320;SDS011;65132;52.088;5.402;2023-03-24T01:31:33;2.78;;;1.40;;
76320;SDS011;65132;52.088;5.402;2023-03-24T01:34:00;3.72;;;1.70;;
76320;SDS011;65132;52.088;5.402;2023-03-24T01:36:29;3.83;;;2.05;;
76320;SDS011;65132;52.088;5.402;2023-03-24T01:38:56;6.30;;;2.25;;
76320;SDS011;65132;52.088;5.402;2023-03-24T01:41:32;5.18;;;1.48;;
76320;SDS011;65132;52.088;5.402;2023-03-24T01:49:44;5.70;;;2.30;;
76320;SDS011;65132;52.088;5.402;2023-03-24T01:52:21;4.18;;;1.70;;
76320;SDS011;65132;52.088;5.402;2023-03-24T01:59:54;3.88;;;2.10;;
76320;SDS011;65132;52.088;5.402;2023-03-24T02:02:24;3.30;;;1.42;;
76320;SDS011;65132;52.088;5.402;2023-03-24T02:04:54;6.93;;;2.78;;
76320;SDS011;65132;52.088;5.402;2023-03-24T02:07:31;5.80;;;2.17;;
76320;SDS011;65132;52.088;5.402;2023-03-24T02:10:11;5.55;;;2.53;;
76320;SDS011;65132;52.088;5.402;2023-03-24T02:12:41;5.47;;;2.25;;
76320;SDS011;65132;52.088;5.402;2023-03-24T02:15:10;7.38;;;2.15;;
76320;SDS011;65132;52.088;5.402;2023-03-24T02:18:02;4.47;;;2.10;;
76320;SDS011;65132;52.088;5.402;2023-03-24T02:23:53;4.35;;;1.80;;
76320;SDS011;65132;52.088;5.402;2023-03-24T02:29:42;4.43;;;1.95;;
76320;SDS011;65132;52.088;5.402;2023-03-24T02:41:06;4.25;;;2.03;;
76320;SDS011;65132;52.088;5.402;2023-03-24T02:44:02;3.80;;;1.80;;
76320;SDS011;65132;52.088;5.402;2023-03-24T02:46:43;2.63;;;1.35;;
76320;SDS011;65132;52.088;5.402;2023-03-24T02:51:49;3.42;;;1.20;;
76320;SDS011;65132;52.088;5.402;2023-03-24T02:54:25;2.97;;;1.00;;
76320;SDS011;65132;52.088;5.402;2023-03-24T02:57:09;3.45;;;0.93;;
76320;SDS011;65132;52.088;5.402;2023-03-24T02:59:53;2.08;;;0.75;;
76320;SDS011;65132;52.088;5.402;2023-03-24T03:02:28;2.95;;;0.98;;
76320;SDS011;65132;52.088;5.402;2023-03-24T03:05:02;5.30;;;1.02;;
76320;SDS011;65132;52.088;5.402;2023-03-24T03:07:36;5.25;;;0.98;;
76320;SDS011;65132;52.088;5.402;2023-03-24T03:10:07;3.35;;;0.60;;
76320;SDS011;65132;52.088;5.402;2023-03-24T03:12:40;2.47;;;0.35;;
76320;SDS011;65132;52.088;5.402;2023-03-24T03:15:11;3.17;;;0.65;;
76320;SDS011;65132;52.088;5.402;2023-03-24T03:17:42;2.45;;;0.47;;
76320;SDS011;65132;52.088;5.402;2023-03-24T03:20:18;1.48;;;0.30;;
76320;SDS011;65132;52.088;5.402;2023-03-24T03:22:47;1.42;;;0.50;;
76320;SDS011;65132;52.088;5.402;2023-03-24T03:25:26;3.08;;;0.43;;
76320;SDS011;65132;52.088;5.402;2023-03-24T03:28:00;4.07;;;0.50;;
76320;SDS011;65132;52.088;5.402;2023-03-24T03:33:01;2.05;;;0.40;;
76320;SDS011;65132;52.088;5.402;2023-03-24T03:35:38;2.00;;;0.30;;
76320;SDS011;65132;52.088;5.402;2023-03-24T03:38:14;2.25;;;0.52;;
76320;SDS011;65132;52.088;5.402;2023-03-24T03:40:57;4.90;;;0.63;;
76320;SDS011;65132;52.088;5.402;2023-03-24T03:43:29;3.03;;;0.38;;
76320;SDS011;65132;52.088;5.402;2023-03-24T03:45:58;3.45;;;0.63;;
76320;SDS011;65132;52.088;5.402;2023-03-24T03:48:26;6.18;;;0.70;;
76320;SDS011;65132;52.088;5.402;2023-03-24T03:50:54;5.45;;;0.50;;
76320;SDS011;65132;52.088;5.402;2023-03-24T03:56:21;3.28;;;0.35;;
76320;SDS011;65132;52.088;5.402;2023-03-24T03:58:49;3.22;;;0.50;;
76320;SDS011;65132;52.088;5.402;2023-03-24T04:01:16;3.10;;;0.50;;
76320;SDS011;65132;52.088;5.402;2023-03-24T04:09:26;6.00;;;0.57;;
76320;SDS011;65132;52.088;5.402;2023-03-24T04:15:13;6.10;;;1.20;;
76320;SDS011;65132;52.088;5.402;2023-03-24T04:17:49;6.97;;;0.60;;
76320;SDS011;65132;52.088;5.402;2023-03-24T04:20:44;3.30;;;0.50;;
76320;SDS011;65132;52.088;5.402;2023-03-24T04:23:23;4.78;;;0.98;;
76320;SDS011;65132;52.088;5.402;2023-03-24T04:28:48;5.68;;;0.85;;
76320;SDS011;65132;52.088;5.402;2023-03-24T04:34:14;7.82;;;1.02;;
76320;SDS011;65132;52.088;5.402;2023-03-24T04:36:58;4.43;;;0.85;;
76320;SDS011;65132;52.088;5.402;2023-03-24T04:39:32;7.15;;;1.38;;
76320;SDS011;65132;52.088;5.402;2023-03-24T04:42:03;3.70;;;1.08;;
76320;SDS011;65132;52.088;5.402;2023-03-24T04:44:33;3.95;;;0.70;;
76320;SDS011;65132;52.088;5.402;2023-03-24T04:47:00;5.90;;;0.73;;
76320;SDS011;65132;52.088;5.402;2023-03-24T04:49:30;10.75;;;0.82;;
76320;SDS011;65132;52.088;5.402;2023-03-24T04:51:56;10.85;;;0.93;;
76320;SDS011;65132;52.088;5.402;2023-03-24T04:54:23;5.65;;;1.30;;
76320;SDS011;65132;52.088;5.402;2023-03-24T04:56:55;7.47;;;0.82;;
76320;SDS011;65132;52.088;5.402;2023-03-24T04:59:29;3.17;;;0.43;;
76320;SDS011;65132;52.088;5.402;2023-03-24T05:01:58;7.45;;;0.77;;
76320;SDS011;65132;52.088;5.402;2023-03-24T05:04:25;5.10;;;0.70;;
76320;SDS011;65132;52.088;5.402;2023-03-24T05:06:55;7.60;;;0.70;;
76320;SDS011;65132;52.088;5.402;2023-03-24T05:09:25;8.77;;;0.60;;
76320;SDS011;65132;52.088;5.402;2023-03-24T05:11:53;7.70;;;1.17;;
76320;SDS011;65132;52.088;5.402;2023-03-24T05:14:27;5.30;;;1.02;;
76320;SDS011;65132;52.088;5.402;2023-03-24T05:16:53;5.45;;;0.50;;
76320;SDS011;65132;52.088;5.402;2023-03-24T05:19:21;7.03;;;0.63;;
76320;SDS011;65132;52.088;5.402;2023-03-24T05:21:50;7.32;;;0.60;;
76320;SDS011;65132;52.088;5.402;2023-03-24T05:24:16;6.53;;;1.40;;
76320;SDS011;65132;52.088;5.402;2023-03-24T05:26:47;7.45;;;1.33;;
76320;SDS011;65132;52.088;5.402;2023-03-24T05:29:13;15.20;;;0.63;;
76320;SDS011;65132;52.088;5.402;2023-03-24T05:31:39;15.45;;;1.63;;
76320;SDS011;65132;52.088;5.402;2023-03-24T05:34:07;6.47;;;0.73;;
76320;SDS011;65132;52.088;5.402;2023-03-24T05:36:35;7.82;;;0.85;;
76320;SDS011;65132;52.088;5.402;2023-03-24T05:39:07;4.65;;;0.65;;
76320;SDS011;65132;52.088;5.402;2023-03-24T05:41:34;11.98;;;0.90;;
76320;SDS011;65132;52.088;5.402;2023-03-24T05:44:00;10.05;;;0.88;;
76320;SDS011;65132;52.088;5.402;2023-03-24T05:46:28;11.95;;;1.13;;
76320;SDS011;65132;52.088;5.402;2023-03-24T05:49:00;8.75;;;0.82;;
76320;SDS011;65132;52.088;5.402;2023-03-24T05:51:26;6.53;;;0.95;;
76320;SDS011;65132;52.088;5.402;2023-03-24T05:53:53;9.27;;;1.00;;
76320;SDS011;65132;52.088;5.402;2023-03-24T05:56:19;8.73;;;0.90;;
76320;SDS011;65132;52.088;5.402;2023-03-24T05:58:48;8.07;;;1.02;;
76320;SDS011;65132;52.088;5.402;2023-03-24T06:01:16;8.13;;;0.77;;
76320;SDS011;65132;52.088;5.402;2023-03-24T06:03:44;8.57;;;0.68;;
76320;SDS011;65132;52.088;5.402;2023-03-24T06:06:11;9.82;;;1.02;;
76320;SDS011;65132;52.088;5.402;2023-03-24T06:08:38;13.57;;;1.48;;
76320;SDS011;65132;52.088;5.402;2023-03-24T06:11:08;6.38;;;1.05;;
76320;SDS011;65132;52.088;5.402;2023-03-24T06:13:34;5.50;;;1.15;;
76320;SDS011;65132;52.088;5.402;2023-03-24T06:16:01;6.80;;;1.33;;
76320;SDS011;65132;52.088;5.402;2023-03-24T06:18:33;6.40;;;1.00;;
76320;SDS011;65132;52.088;5.402;2023-03-24T06:21:02;11.57;;;1.45;;
76320;SDS011;65132;52.088;5.402;2023-03-24T06:23:31;6.15;;;0.80;;
76320;SDS011;65132;52.088;5.402;2023-03-24T06:25:58;7.43;;;1.42;;
76320;SDS011;65132;52.088;5.402;2023-03-24T06:28:24;11.88;;;1.40;;
76320;SDS011;65132;52.088;5.402;2023-03-24T06:30:51;11.95;;;1.73;;
76320;SDS011;65132;52.088;5.402;2023-03-24T06:33:18;12.23;;;2.13;;
76320;SDS011;65132;52.088;5.402;2023-03-24T06:35:44;5.80;;;0.98;;
76320;SDS011;65132;52.088;5.402;2023-03-24T06:38:19;3.85;;;0.63;;
76320;SDS011;65132;52.088;5.402;2023-03-24T06:40:51;9.35;;;1.42;;
76320;SDS011;65132;52.088;5.402;2023-03-24T06:43:17;4.18;;;1.13;;
76320;SDS011;65132;52.088;5.402;2023-03-24T06:45:44;7.03;;;1.15;;
76320;SDS011;65132;52.088;5.402;2023-03-24T06:48:11;9.25;;;1.33;;
76320;SDS011;65132;52.088;5.402;2023-03-24T06:50:40;4.47;;;0.88;;
76320;SDS011;65132;52.088;5.402;2023-03-24T06:53:07;9.35;;;1.48;;
76320;SDS011;65132;52.088;5.402;2023-03-24T06:55:33;13.05;;;1.75;;
76320;SDS011;65132;52.088;5.402;2023-03-24T06:58:09;6.35;;;1.38;;
76320;SDS011;65132;52.088;5.402;2023-03-24T07:00:36;6.28;;;1.33;;
76320;SDS011;65132;52.088;5.402;2023-03-24T07:03:03;6.43;;;1.15;;
76320;SDS011;65132;52.088;5.402;2023-03-24T07:05:29;11.85;;;1.38;;
76320;SDS011;65132;52.088;5.402;2023-03-24T07:07:56;6.95;;;1.20;;
76320;SDS011;65132;52.088;5.402;2023-03-24T07:10:30;8.50;;;1.10;;
76320;SDS011;65132;52.088;5.402;2023-03-24T07:12:59;6.85;;;1.10;;
76320;SDS011;65132;52.088;5.402;2023-03-24T07:15:30;9.35;;;1.42;;
76320;SDS011;65132;52.088;5.402;2023-03-24T07:17:59;7.05;;;0.93;;
76320;SDS011;65132;52.088;5.402;2023-03-24T07:20:27;6.82;;;1.95;;
76320;SDS011;65132;52.088;5.402;2023-03-24T07:22:59;4.65;;;1.02;;
76320;SDS011;65132;52.088;5.402;2023-03-24T07:25:28;6.30;;;1.55;;
76320;SDS011;65132;52.088;5.402;2023-03-24T07:27:57;8.52;;;1.45;;
76320;SDS011;65132;52.088;5.402;2023-03-24T07:30:24;9.25;;;1.42;;
76320;SDS011;65132;52.088;5.402;2023-03-24T07:33:05;7.40;;;0.90;;
76320;SDS011;65132;52.088;5.402;2023-03-24T07:35:35;9.63;;;1.45;;
76320;SDS011;65132;52.088;5.402;2023-03-24T07:38:03;8.02;;;0.98;;
76320;SDS011;65132;52.088;5.402;2023-03-24T07:40:32;7.30;;;0.95;;
76320;SDS011;65132;52.088;5.402;2023-03-24T07:43:03;7.85;;;1.30;;
76320;SDS011;65132;52.088;5.402;2023-03-24T07:45:35;6.07;;;1.02;;
76320;SDS011;65132;52.088;5.402;2023-03-24T07:48:14;5.50;;;1.02;;
76320;SDS011;65132;52.088;5.402;2023-03-24T07:50:42;11.60;;;1.58;;
76320;SDS011;65132;52.088;5.402;2023-03-24T08:06:55;8.25;;;1.30;;
76320;SDS011;65132;52.088;5.402;2023-03-24T08:09:23;13.55;;;1.40;;
76320;SDS011;65132;52.088;5.402;2023-03-24T08:11:50;7.78;;;1.05;;
76320;SDS011;65132;52.088;5.402;2023-03-24T08:19:40;6.78;;;1.23;;
76320;SDS011;65132;52.088;5.402;2023-03-24T08:22:23;7.88;;;1.25;;
76320;SDS011;65132;52.088;5.402;2023-03-24T08:24:53;4.78;;;0.57;;
76320;SDS011;65132;52.088;5.402;2023-03-24T08:27:19;6.35;;;1.10;;
76320;SDS011;65132;52.088;5.402;2023-03-24T08:29:46;7.78;;;0.93;;
76320;SDS011;65132;52.088;5.402;2023-03-24T08:40:24;6.65;;;1.27;;
76320;SDS011;65132;52.088;5.402;2023-03-24T08:42:54;4.85;;;0.93;;
76320;SDS011;65132;52.088;5.402;2023-03-24T08:45:27;6.35;;;1.00;;
76320;SDS011;65132;52.088;5.402;2023-03-24T08:47:57;6.10;;;0.90;;
76320;SDS011;65132;52.088;5.402;2023-03-24T08:50:27;10.25;;;1.33;;
76320;SDS011;65132;52.088;5.402;2023-03-24T08:52:55;5.32;;;1.10;;
76320;SDS011;65132;52.088;5.402;2023-03-24T08:55:27;5.68;;;1.45;;
76320;SDS011;65132;52.088;5.402;2023-03-24T08:57:55;4.22;;;0.88;;
76320;SDS011;65132;52.088;5.402;2023-03-24T09:00:22;6.40;;;1.10;;
76320;SDS011;65132;52.088;5.402;2023-03-24T09:02:52;5.47;;;1.00;;
76320;SDS011;65132;52.088;5.402;2023-03-24T09:05:19;6.55;;;1.15;;
76320;SDS011;65132;52.088;5.402;2023-03-24T09:08:06;6.07;;;1.20;;
76320;SDS011;65132;52.088;5.402;2023-03-24T09:10:32;3.60;;;1.05;;
76320;SDS011;65132;52.088;5.402;2023-03-24T09:12:59;6.60;;;1.30;;
76320;SDS011;65132;52.088;5.402;2023-03-24T09:15:25;6.97;;;0.93;;
76320;SDS011;65132;52.088;5.402;2023-03-24T09:17:54;5.35;;;1.20;;
76320;SDS011;65132;52.088;5.402;2023-03-24T09:20:20;6.55;;;0.85;;
76320;SDS011;65132;52.088;5.402;2023-03-24T09:22:47;4.97;;;1.20;;
76320;SDS011;65132;52.088;5.402;2023-03-24T09:25:15;5.07;;;1.38;;
76320;SDS011;65132;52.088;5.402;2023-03-24T09:27:43;10.88;;;2.17;;
76320;SDS011;65132;52.088;5.402;2023-03-24T09:30:16;5.85;;;0.73;;
76320;SDS011;65132;52.088;5.402;2023-03-24T09:32:44;9.10;;;1.77;;
76320;SDS011;65132;52.088;5.402;2023-03-24T09:35:11;6.93;;;1.17;;
76320;SDS011;65132;52.088;5.402;2023-03-24T09:37:40;5.63;;;0.82;;
76320;SDS011;65132;52.088;5.402;2023-03-24T09:40:14;9.80;;;1.65;;
76320;SDS011;65132;52.088;5.402;2023-03-24T09:45:16;5.35;;;1.02;;
76320;SDS011;65132;52.088;5.402;2023-03-24T09:47:47;8.02;;;1.20;;
76320;SDS011;65132;52.088;5.402;2023-03-24T09:51:01;3.83;;;0.90;;
76320;SDS011;65132;52.088;5.402;2023-03-24T09:56:22;5.03;;;1.20;;
76320;SDS011;65132;52.088;5.402;2023-03-24T09:58:52;4.93;;;0.98;;
76320;SDS011;65132;52.088;5.402;2023-03-24T10:01:29;3.65;;;0.75;;
76320;SDS011;65132;52.088;5.402;2023-03-24T10:03:58;7.78;;;1.00;;
76320;SDS011;65132;52.088;5.402;2023-03-24T10:06:26;7.10;;;1.10;;
76320;SDS011;65132;52.088;5.402;2023-03-24T10:12:15;5.63;;;0.90;;
76320;SDS011;65132;52.088;5.402;2023-03-24T10:14:56;7.55;;;0.90;;
76320;SDS011;65132;52.088;5.402;2023-03-24T10:23:28;6.65;;;1.27;;
76320;SDS011;65132;52.088;5.402;2023-03-24T10:32:01;3.67;;;0.77;;
76320;SDS011;65132;52.088;5.402;2023-03-24T10:34:35;5.43;;;0.98;;
76320;SDS011;65132;52.088;5.402;2023-03-24T10:37:06;7.13;;;1.25;;
76320;SDS011;65132;52.088;5.402;2023-03-24T10:39:32;5.13;;;0.88;;
76320;SDS011;65132;52.088;5.402;2023-03-24T10:42:14;8.77;;;1.13;;
76320;SDS011;65132;52.088;5.402;2023-03-24T10:44:44;8.85;;;0.70;;
76320;SDS011;65132;52.088;5.402;2023-03-24T10:47:12;5.97;;;1.00;;
76320;SDS011;65132;52.088;5.402;2023-03-24T10:49:50;6.75;;;1.13;;
76320;SDS011;65132;52.088;5.402;2023-03-24T10:52:19;6.65;;;1.55;;
76320;SDS011;65132;52.088;5.402;2023-03-24T10:54:56;6.93;;;0.88;;
76320;SDS011;65132;52.088;5.402;2023-03-24T10:57:27;5.63;;;0.77;;
76320;SDS011;65132;52.088;5.402;2023-03-24T11:02:34;8.65;;;1.08;;
76320;SDS011;65132;52.088;5.402;2023-03-24T11:07:37;6.20;;;1.00;;
76320;SDS011;65132;52.088;5.402;2023-03-24T11:12:36;4.97;;;1.13;;
76320;SDS011;65132;52.088;5.402;2023-03-24T11:15:18;5.97;;;1.00;;
76320;SDS011;65132;52.088;5.402;2023-03-24T11:17:55;8.02;;;1.30;;
76320;SDS011;65132;52.088;5.402;2023-03-24T11:28:51;5.60;;;1.08;;
76320;SDS011;65132;52.088;5.402;2023-03-24T11:31:23;9.70;;;0.77;;
76320;SDS011;65132;52.088;5.402;2023-03-24T11:39:08;7.20;;;0.47;;
76320;SDS011;65132;52.088;5.402;2023-03-24T11:41:37;5.10;;;0.68;;
76320;SDS011;65132;52.088;5.402;2023-03-24T11:44:22;5.43;;;0.52;;
76320;SDS011;65132;52.088;5.402;2023-03-24T11:46:54;5.05;;;0.73;;
76320;SDS011;65132;52.088;5.402;2023-03-24T11:49:32;5.22;;;0.70;;
76320;SDS011;65132;52.088;5.402;2023-03-24T11:52:22;3.17;;;0.60;;
76320;SDS011;65132;52.088;5.402;2023-03-24T11:54:53;8.15;;;1.20;;
76320;SDS011;65132;52.088;5.402;2023-03-24T11:57:24;7.80;;;0.90;;
76320;SDS011;65132;52.088;5.402;2023-03-24T12:00:20;5.70;;;1.00;;
76320;SDS011;65132;52.088;5.402;2023-03-24T12:05:41;5.80;;;0.77;;
76320;SDS011;65132;52.088;5.402;2023-03-24T12:08:33;6.40;;;0.70;;
76320;SDS011;65132;52.088;5.402;2023-03-24T12:11:25;4.63;;;1.10;;
76320;SDS011;65132;52.088;5.402;2023-03-24T12:13:56;7.32;;;0.77;;
76320;SDS011;65132;52.088;5.402;2023-03-24T12:19:27;6.95;;;1.05;;
76320;SDS011;65132;52.088;5.402;2023-03-24T12:27:37;6.85;;;0.88;;
76320;SDS011;65132;52.088;5.402;2023-03-24T12:33:19;3.30;;;0.50;;
76320;SDS011;65132;52.088;5.402;2023-03-24T12:47:15;5.28;;;1.08;;
76320;SDS011;65132;52.088;5.402;2023-03-24T12:55:41;2.58;;;0.52;;
76320;SDS011;65132;52.088;5.402;2023-03-24T12:58:21;7.20;;;0.80;;
76320;SDS011;65132;52.088;5.402;2023-03-24T13:03:57;2.90;;;0.70;;
76320;SDS011;65132;52.088;5.402;2023-03-24T13:06:29;3.35;;;0.60;;
76320;SDS011;65132;52.088;5.402;2023-03-24T13:09:24;5.25;;;0.93;;
76320;SDS011;65132;52.088;5.402;2023-03-24T13:12:17;3.97;;;0.82;;
76320;SDS011;65132;52.088;5.402;2023-03-24T13:17:52;3.70;;;0.55;;
76320;SDS011;65132;52.088;5.402;2023-03-24T13:20:24;8.15;;;1.20;;
76320;SDS011;65132;52.088;5.402;2023-03-24T13:22:54;6.30;;;0.73;;
76320;SDS011;65132;52.088;5.402;2023-03-24T13:25:38;4.75;;;0.75;;
76320;SDS011;65132;52.088;5.402;2023-03-24T13:28:21;7.57;;;1.20;;
76320;SDS011;65132;52.088;5.402;2023-03-24T13:30:55;6.28;;;1.00;;
76320;SDS011;65132;52.088;5.402;2023-03-24T13:33:23;2.25;;;0.55;;
76320;SDS011;65132;52.088;5.402;2023-03-24T13:36:14;4.32;;;0.80;;
76320;SDS011;65132;52.088;5.402;2023-03-24T13:39:16;9.18;;;1.08;;
76320;SDS011;65132;52.088;5.402;2023-03-24T13:41:49;5.85;;;0.95;;
76320;SDS011;65132;52.088;5.402;2023-03-24T13:50:00;2.55;;;1.10;;
76320;SDS011;65132;52.088;5.402;2023-03-24T13:52:37;2.40;;;0.35;;
76320;SDS011;65132;52.088;5.402;2023-03-24T13:55:11;2.88;;;0.75;;
76320;SDS011;65132;52.088;5.402;2023-03-24T13:57:40;4.07;;;0.60;;
76320;SDS011;65132;52.088;5.402;2023-03-24T14:00:20;2.08;;;0.40;;
76320;SDS011;65132;52.088;5.402;2023-03-24T14:02:52;4.85;;;0.70;;
76320;SDS011;65132;52.088;5.402;2023-03-24T14:07:50;4.25;;;0.40;;
76320;SDS011;65132;52.088;5.402;2023-03-24T14:15:51;4.95;;;0.30;;
76320;SDS011;65132;52.088;5.402;2023-03-24T14:20:58;1.92;;;0.45;;
76320;SDS011;65132;52.088;5.402;2023-03-24T14:23:37;4.15;;;0.40;;
76320;SDS011;65132;52.088;5.402;2023-03-24T14:26:12;2.92;;;0.52;;
76320;SDS011;65132;52.088;5.402;2023-03-24T14:28:54;3.53;;;0.32;;
76320;SDS011;65132;52.088;5.402;2023-03-24T14:31:23;6.25;;;0.70;;
76320;SDS011;65132;52.088;5.402;2023-03-24T14:36:37;3.20;;;0.40;;
76320;SDS011;65132;52.088;5.402;2023-03-24T14:39:18;3.80;;;0.35;;
76320;SDS011;65132;52.088;5.402;2023-03-24T14:41:52;2.72;;;0.63;;
76320;SDS011;65132;52.088;5.402;2023-03-24T14:47:16;2.75;;;0.30;;
76320;SDS011;65132;52.088;5.402;2023-03-24T14:49:52;3.10;;;0.45;;
76320;SDS011;65132;52.088;5.402;2023-03-24T14:52:27;3.53;;;0.50;;
76320;SDS011;65132;52.088;5.402;2023-03-24T14:55:01;2.42;;;0.40;;
76320;SDS011;65132;52.088;5.402;2023-03-24T14:57:33;3.50;;;0.32;;
76320;SDS011;65132;52.088;5.402;2023-03-24T15:00:25;5.47;;;0.63;;
76320;SDS011;65132;52.088;5.402;2023-03-24T15:02:59;2.83;;;0.43;;
76320;SDS011;65132;52.088;5.402;2023-03-24T15:05:37;4.65;;;0.50;;
76320;SDS011;65132;52.088;5.402;2023-03-24T15:08:14;2.33;;;0.43;;
76320;SDS011;65132;52.088;5.402;2023-03-24T15:10:48;2.88;;;0.47;;
76320;SDS011;65132;52.088;5.402;2023-03-24T15:13:26;4.32;;;0.50;;
76320;SDS011;65132;52.088;5.402;2023-03-24T15:15:56;3.95;;;0.40;;
76320;SDS011;65132;52.088;5.402;2023-03-24T15:18:25;3.58;;;0.63;;
76320;SDS011;65132;52.088;5.402;2023-03-24T15:20:52;5.53;;;0.45;;
76320;SDS011;65132;52.088;5.402;2023-03-24T15:23:20;4.95;;;0.70;;
76320;SDS011;65132;52.088;5.402;2023-03-24T15:25:51;4.78;;;0.60;;
76320;SDS011;65132;52.088;5.402;2023-03-24T15:28:26;4.07;;;0.80;;
76320;SDS011;65132;52.088;5.402;2023-03-24T15:30:57;2.63;;;0.50;;
76320;SDS011;65132;52.088;5.402;2023-03-24T15:33:25;7.78;;;0.75;;
76320;SDS011;65132;52.088;5.402;2023-03-24T15:35:56;5.45;;;0.93;;
76320;SDS011;65132;52.088;5.402;2023-03-24T15:38:28;2.90;;;0.65;;
76320;SDS011;65132;52.088;5.402;2023-03-24T15:41:06;4.60;;;0.60;;
76320;SDS011;65132;52.088;5.402;2023-03-24T15:43:40;5.93;;;0.88;;
76320;SDS011;65132;52.088;5.402;2023-03-24T15:46:18;6.70;;;0.90;;
76320;SDS011;65132;52.088;5.402;2023-03-24T15:48:53;3.45;;;0.55;;
76320;SDS011;65132;52.088;5.402;2023-03-24T15:54:19;3.88;;;0.50;;
76320;SDS011;65132;52.088;5.402;2023-03-24T15:59:49;6.43;;;0.95;;
76320;SDS011;65132;52.088;5.402;2023-03-24T16:02:40;3.83;;;1.17;;
76320;SDS011;65132;52.088;5.402;2023-03-24T16:05:21;5.97;;;0.70;;
76320;SDS011;65132;52.088;5.402;2023-03-24T16:08:01;2.83;;;0.70;;
76320;SDS011;65132;52.088;5.402;2023-03-24T16:10:55;6.18;;;0.52;;
76320;SDS011;65132;52.088;5.402;2023-03-24T16:13:23;7.60;;;0.50;;
76320;SDS011;65132;52.088;5.402;2023-03-24T16:15:56;3.42;;;0.50;;
76320;SDS011;65132;52.088;5.402;2023-03-24T16:18:24;4.05;;;0.80;;
76320;SDS011;65132;52.088;5.402;2023-03-24T16:20:55;7.38;;;0.70;;
76320;SDS011;65132;52.088;5.402;2023-03-24T16:23:28;6.70;;;0.63;;
76320;SDS011;65132;52.088;5.402;2023-03-24T16:26:00;4.25;;;0.63;;
76320;SDS011;65132;52.088;5.402;2023-03-24T16:28:26;5.93;;;0.63;;
76320;SDS011;65132;52.088;5.402;2023-03-24T16:31:00;5.35;;;0.50;;
76320;SDS011;65132;52.088;5.402;2023-03-24T16:33:31;7.60;;;0.70;;
76320;SDS011;65132;52.088;5.402;2023-03-24T16:36:03;4.15;;;0.55;;
76320;SDS011;65132;52.088;5.402;2023-03-24T16:38:29;4.07;;;0.90;;
76320;SDS011;65132;52.088;5.402;2023-03-24T16:41:09;3.22;;;0.63;;
76320;SDS011;65132;52.088;5.402;2023-03-24T16:43:38;5.18;;;0.50;;
76320;SDS011;65132;52.088;5.402;2023-03-24T16:46:10;4.32;;;0.40;;
76320;SDS011;65132;52.088;5.402;2023-03-24T16:48:54;6.40;;;0.90;;
76320;SDS011;65132;52.088;5.402;2023-03-24T16:51:22;5.25;;;1.30;;
76320;SDS011;65132;52.088;5.402;2023-03-24T16:53:49;5.15;;;0.50;;
76320;SDS011;65132;52.088;5.402;2023-03-24T16:56:17;3.85;;;0.60;;
76320;SDS011;65132;52.088;5.402;2023-03-24T16:58:47;3.25;;;0.55;;
76320;SDS011;65132;52.088;5.402;2023-03-24T17:01:17;3.40;;;0.82;;
76320;SDS011;65132;52.088;5.402;2023-03-24T17:03:44;5.18;;;0.63;;
76320;SDS011;65132;52.088;5.402;2023-03-24T17:06:10;6.30;;;0.60;;
76320;SDS011;65132;52.088;5.402;2023-03-24T17:08:37;4.15;;;0.73;;
76320;SDS011;65132;52.088;5.402;2023-03-24T17:11:03;4.30;;;0.63;;
76320;SDS011;65132;52.088;5.402;2023-03-24T17:13:32;5.60;;;0.63;;
76320;SDS011;65132;52.088;5.402;2023-03-24T17:16:08;3.70;;;0.45;;
76320;SDS011;65132;52.088;5.402;2023-03-24T17:18:41;2.90;;;0.35;;
76320;SDS011;65132;52.088;5.402;2023-03-24T17:21:15;9.15;;;0.70;;
76320;SDS011;65132;52.088;5.402;2023-03-24T17:23:45;3.50;;;0.60;;
76320;SDS011;65132;52.088;5.402;2023-03-24T17:26:18;5.07;;;0.63;;
76320;SDS011;65132;52.088;5.402;2023-03-24T17:28:44;6.88;;;0.63;;
76320;SDS011;65132;52.088;5.402;2023-03-24T17:31:13;3.97;;;0.73;;
76320;SDS011;65132;52.088;5.402;2023-03-24T17:33:40;3.75;;;0.65;;
76320;SDS011;65132;52.088;5.402;2023-03-24T17:36:10;6.95;;;0.73;;
76320;SDS011;65132;52.088;5.402;2023-03-24T17:38:39;8.75;;;1.27;;
76320;SDS011;65132;52.088;5.402;2023-03-24T17:41:05;12.68;;;0.80;;
76320;SDS011;65132;52.088;5.402;2023-03-24T17:43:32;4.63;;;0.88;;
76320;SDS011;65132;52.088;5.402;2023-03-24T17:45:59;6.55;;;1.02;;
76320;SDS011;65132;52.088;5.402;2023-03-24T17:48:29;7.97;;;0.90;;
76320;SDS011;65132;52.088;5.402;2023-03-24T17:50:55;10.52;;;1.10;;
76320;SDS011;65132;52.088;5.402;2023-03-24T17:53:24;6.38;;;0.80;;
76320;SDS011;65132;52.088;5.402;2023-03-24T17:55:56;7.40;;;0.82;;
76320;SDS011;65132;52.088;5.402;2023-03-24T17:58:24;7.65;;;0.70;;
76320;SDS011;65132;52.088;5.402;2023-03-24T18:00:52;5.85;;;0.77;;
76320;SDS011;65132;52.088;5.402;2023-03-24T18:03:19;4.32;;;0.88;;
76320;SDS011;65132;52.088;5.402;2023-03-24T18:05:51;4.57;;;0.50;;
76320;SDS011;65132;52.088;5.402;2023-03-24T18:08:22;9.18;;;1.00;;
76320;SDS011;65132;52.088;5.402;2023-03-24T18:10:49;5.38;;;0.70;;
76320;SDS011;65132;52.088;5.402;2023-03-24T18:13:18;6.88;;;0.73;;
76320;SDS011;65132;52.088;5.402;2023-03-24T18:15:47;3.08;;;0.50;;
76320;SDS011;65132;52.088;5.402;2023-03-24T18:18:16;3.85;;;0.73;;
76320;SDS011;65132;52.088;5.402;2023-03-24T18:20:42;3.92;;;0.38;;